Time;durP1;ratioP1;P1;durP2;ratioP2;P2;SDS_P1;SDS_P2;PMS_P1;PMS_P2;Temp;Humidity;BMP_temperature;BMP_pressure;BME280_temperature;BME280_humidity;BME280_pressure;Samples;Min_cycle;Max_cycle;Signal;HPM_P1;HPM_P2
2022/02/22 00:01:43;;;;;;;;;8.00;4.00;;;;;19.26;35.84;101833.06;5104358;27;45950;-53
2022/02/22 00:04:09;;;;;;;;;8.00;4.00;;;;;19.28;35.96;101849.63;5104795;27;45384;-52
2022/02/22 00:06:35;;;;;;;;;8.50;5.75;;;;;19.27;35.38;101838.28;5101135;27;45415;-52
2022/02/22 00:09:00;;;;;;;;;6.00;2.00;;;;;19.26;35.64;101835.69;5097405;27;45553;-52
2022/02/22 00:11:26;;;;;;;;;7.50;6.00;;;;;19.26;35.86;101839.19;5098537;27;46175;-51
2022/02/22 00:13:52;;;;;;;;;6.75;5.00;;;;;19.26;35.97;101843.56;5098509;27;45317;-52
2022/02/22 00:16:18;;;;;;;;;6.25;5.50;;;;;19.24;36.10;101843.63;5098590;27;45282;-50
2022/02/22 00:18:43;;;;;;;;;6.00;6.00;;;;;19.25;36.04;101847.97;5098494;27;45530;-54
2022/02/22 00:21:08;;;;;;;;;5.00;5.00;;;;;19.25;35.82;101844.47;5098393;27;46868;-54
2022/02/22 00:23:34;;;;;;;;;8.00;4.75;;;;;19.22;35.92;101837.56;5099901;27;45242;-52
2022/02/22 00:25:59;;;;;;;;;5.75;5.00;;;;;19.22;36.16;101837.56;5098848;27;45539;-54
2022/02/22 00:28:25;;;;;;;;;8.75;5.75;;;;;19.22;36.27;101839.34;5100072;27;45515;-52
2022/02/22 00:30:51;;;;;;;;;9.00;5.00;;;;;19.20;35.69;101841.16;5098187;27;46006;-54
2022/02/22 00:33:17;;;;;;;;;7.25;6.25;;;;;19.19;36.04;101844.69;5098590;27;46319;-53
2022/02/22 00:35:42;;;;;;;;;6.50;5.00;;;;;19.22;35.82;101849.84;5098562;27;45382;-53
2022/02/22 00:38:08;;;;;;;;;5.50;4.75;;;;;19.23;36.06;101843.69;5098803;27;45580;-55
2022/02/22 00:40:34;;;;;;;;;6.00;4.00;;;;;19.20;36.04;101854.31;5099667;27;45277;-52
2022/02/22 00:43:00;;;;;;;;;7.00;6.00;;;;;19.19;36.21;101853.44;5106230;27;45352;-52
2022/02/22 00:45:26;;;;;;;;;7.25;5.00;;;;;19.19;36.05;101847.31;5104851;27;45385;-53
2022/02/22 00:47:52;;;;;;;;;6.50;4.25;;;;;19.19;36.18;101853.44;5107661;27;45393;-58
2022/02/22 00:50:17;;;;;;;;;5.75;5.50;;;;;19.18;36.03;101853.50;5107249;27;47640;-56
2022/02/22 00:52:42;;;;;;;;;5.00;3.75;;;;;19.18;35.99;101854.38;5114497;27;45149;-56
2022/02/22 00:55:08;;;;;;;;;4.25;4.25;;;;;19.16;35.55;101849.13;5115746;27;45490;-53
2022/02/22 00:57:35;;;;;;;;;7.25;4.75;;;;;19.19;35.84;101857.84;5115189;27;45590;-54
2022/02/22 01:00:01;;;;;;;;;9.50;5.75;;;;;19.18;35.99;101862.25;5119190;27;46368;-51
2022/02/22 01:02:26;;;;;;;;;9.25;6.00;;;;;19.15;36.01;101850.03;5120580;27;44637;-52
2022/02/22 01:04:52;;;;;;;;;7.75;5.50;;;;;19.16;35.98;101862.28;5118849;27;45307;-53
2022/02/22 01:07:17;;;;;;;;;9.25;6.25;;;;;19.16;35.82;101867.53;5111496;27;44953;-53
2022/02/22 01:09:47;;;;;;;;;8.25;5.25;;;;;19.15;35.89;101865.81;5112168;27;46524;-51
2022/02/22 01:12:14;;;;;;;;;6.50;3.50;;;;;19.15;36.18;101865.81;5116285;27;45444;-54
2022/02/22 01:14:40;;;;;;;;;6.00;4.75;;;;;19.15;35.81;101864.97;5115123;27;45203;-51
2022/02/22 01:17:06;;;;;;;;;6.00;5.00;;;;;19.14;35.96;101869.34;5108316;27;45177;-54
2022/02/22 01:19:32;;;;;;;;;13.25;5.75;;;;;19.15;35.82;101876.31;5106331;27;46003;-53
2022/02/22 01:21:57;;;;;;;;;7.25;5.25;;;;;19.14;35.86;101877.22;5112749;27;45274;-55
2022/02/22 01:24:22;;;;;;;;;6.75;5.50;;;;;19.13;36.28;101887.81;5108054;27;45322;-52
2022/02/22 01:26:48;;;;;;;;;9.25;4.00;;;;;19.16;36.12;101893.81;5101302;27;45263;-55
2022/02/22 01:29:13;;;;;;;;;11.00;4.00;;;;;19.20;36.24;101880.59;5099526;27;46117;-53
2022/02/22 01:31:38;;;;;;;;;3.50;3.50;;;;;19.25;36.07;101878.66;5113297;27;45048;-53
2022/02/22 01:34:04;;;;;;;;;5.50;5.50;;;;;19.30;36.07;101879.38;5109484;27;45390;-52
2022/02/22 01:36:30;;;;;;;;;5.50;5.00;;;;;19.37;36.05;101885.28;5100056;27;45538;-53
2022/02/22 01:38:55;;;;;;;;;4.25;4.00;;;;;19.41;36.31;101882.50;5104944;27;45951;-56
2022/02/22 01:41:23;;;;;;;;;5.00;4.00;;;;;19.52;36.48;101883.91;5103404;27;45436;-53
2022/02/22 01:43:48;;;;;;;;;6.25;5.00;;;;;19.56;36.09;101875.84;5101216;27;45189;-53
2022/02/22 01:46:14;;;;;;;;;5.00;3.00;;;;;19.63;36.14;101876.50;5102475;27;45635;-55
2022/02/22 01:48:40;;;;;;;;;6.00;5.00;;;;;19.70;35.80;101874.50;5101621;27;45603;-53
2022/02/22 01:51:05;;;;;;;;;9.00;6.75;;;;;19.73;36.27;101870.00;5100748;27;45333;-55
2022/02/22 01:53:32;;;;;;;;;7.75;5.25;;;;;19.79;35.78;101874.19;5103753;27;45316;-55
2022/02/22 01:55:58;;;;;;;;;4.75;4.00;;;;;19.87;36.00;101876.56;5105585;27;45290;-53
2022/02/22 01:58:23;;;;;;;;;2.50;2.50;;;;;19.91;35.65;101880.78;5102715;27;47179;-51
2022/02/22 02:00:49;;;;;;;;;5.75;4.75;;;;;19.95;35.35;101877.16;5102199;27;45272;-52
2022/02/22 02:03:16;;;;;;;;;5.50;3.50;;;;;19.99;35.48;101878.75;5117901;27;45244;-54
2022/02/22 02:05:43;;;;;;;;;5.50;3.00;;;;;20.02;35.60;101877.78;5118312;27;45235;-54
2022/02/22 02:08:09;;;;;;;;;8.50;5.50;;;;;20.04;35.28;101873.31;5119951;27;45128;-55
2022/02/22 02:10:34;;;;;;;;;10.00;6.75;;;;;20.07;35.60;101875.81;5105149;27;45384;-56
2022/02/22 02:12:59;;;;;;;;;6.75;5.75;;;;;20.08;35.44;101872.28;5102377;27;45260;-52
2022/02/22 02:15:25;;;;;;;;;7.00;4.25;;;;;20.12;35.28;101883.56;5100689;27;45233;-51
2022/02/22 02:17:50;;;;;;;;;5.00;4.50;;;;;20.13;35.43;101880.88;5100242;27;47402;-54
2022/02/22 02:20:16;;;;;;;;;5.75;4.00;;;;;20.15;35.78;101883.44;5100093;27;45324;-55
2022/02/22 02:22:43;;;;;;;;;6.00;5.00;;;;;20.15;35.58;101886.06;5100388;27;45447;-54
2022/02/22 02:25:11;;;;;;;;;7.50;4.50;;;;;20.14;35.54;101893.13;5100808;27;45415;-55
2022/02/22 02:27:37;;;;;;;;;8.00;3.25;;;;;20.15;35.55;101901.88;5100086;27;45428;-56
2022/02/22 02:30:07;;;;;;;;;6.75;4.75;;;;;20.17;35.27;101900.03;5100001;27;45440;-54
2022/02/22 02:32:32;;;;;;;;;7.75;6.50;;;;;20.16;35.66;101900.97;5101184;27;45723;-52
2022/02/22 02:34:58;;;;;;;;;6.75;4.75;;;;;20.17;35.21;101898.28;5099636;27;45410;-54
2022/02/22 02:37:24;;;;;;;;;6.00;5.00;;;;;20.15;35.49;101900.13;5100166;27;46410;-50
2022/02/22 02:39:49;;;;;;;;;8.50;5.50;;;;;20.18;35.15;101901.75;5100889;27;45440;-52
2022/02/22 02:42:17;;;;;;;;;5.75;4.00;;;;;20.16;35.46;101891.31;5100444;27;45287;-54
2022/02/22 02:44:47;;;;;;;;;4.00;4.00;;;;;20.16;35.16;101893.06;5100078;27;45517;-54
2022/02/22 02:47:13;;;;;;;;;6.00;5.00;;;;;20.16;35.07;101890.44;5101200;27;46791;-52
2022/02/22 02:49:39;;;;;;;;;5.00;3.25;;;;;20.15;35.32;101896.59;5106744;27;45396;-52
2022/02/22 02:52:06;;;;;;;;;5.25;3.00;;;;;20.15;35.55;101901.88;5112376;27;45322;-51
2022/02/22 02:54:32;;;;;;;;;4.00;2.75;;;;;20.15;35.48;101915.03;5105201;27;45400;-53
2022/02/22 02:56:57;;;;;;;;;4.50;4.50;;;;;20.14;35.28;101908.91;5107802;27;46272;-54
2022/02/22 02:59:22;;;;;;;;;8.00;5.75;;;;;20.14;34.96;101923.84;5105974;27;45343;-53
2022/02/22 03:01:48;;;;;;;;;5.50;3.75;;;;;20.12;35.34;101937.06;5105487;27;45310;-52
2022/02/22 03:04:13;;;;;;;;;7.00;4.75;;;;;20.13;35.33;101924.75;5101736;27;45214;-51
2022/02/22 03:06:40;;;;;;;;;6.00;5.00;;;;;20.12;35.44;101936.22;5099866;27;45272;-52
2022/02/22 03:09:05;;;;;;;;;7.75;5.75;;;;;20.09;35.36;101931.91;5101322;27;45673;-52
2022/02/22 03:11:31;;;;;;;;;6.25;4.50;;;;;20.10;35.43;101945.94;5104792;27;45168;-53
2022/02/22 03:13:57;;;;;;;;;5.75;5.75;;;;;20.11;35.38;101929.22;5115904;27;45323;-55
2022/02/22 03:16:23;;;;;;;;;8.50;6.25;;;;;20.06;35.66;101922.34;5114283;27;47333;-54
2022/02/22 03:18:48;;;;;;;;;7.75;4.00;;;;;20.07;35.25;101921.44;5108899;27;45261;-51
2022/02/22 03:21:14;;;;;;;;;6.00;5.00;;;;;20.06;35.23;101919.72;5098758;27;45444;-51
2022/02/22 03:23:40;;;;;;;;;6.75;4.75;;;;;20.06;34.97;101927.63;5101101;27;45414;-53
2022/02/22 03:26:05;;;;;;;;;5.75;3.50;;;;;20.03;35.48;101921.59;5099840;27;47120;-55
2022/02/22 03:28:34;;;;;;;;;7.75;5.50;;;;;20.04;35.48;101928.59;5099555;27;45346;-52
2022/02/22 03:31:03;;;;;;;;;6.50;5.00;;;;;20.02;35.62;101936.53;5103739;27;45281;-53
2022/02/22 03:33:28;;;;;;;;;4.00;4.00;;;;;20.02;35.12;101933.88;5103359;27;45483;-49
2022/02/22 03:35:54;;;;;;;;;7.50;5.25;;;;;20.00;35.06;101917.31;5102848;27;46364;-52
2022/02/22 03:38:19;;;;;;;;;6.75;3.50;;;;;19.99;34.96;101927.88;5102070;27;45273;-53
2022/02/22 03:40:45;;;;;;;;;4.75;3.50;;;;;19.98;35.17;101934.94;5112372;27;45313;-52
2022/02/22 03:43:10;;;;;;;;;6.50;3.00;;;;;19.98;35.34;101939.31;5117368;27;45417;-53
2022/02/22 03:45:35;;;;;;;;;8.50;4.00;;;;;19.96;35.24;101931.50;5118871;27;46105;-53
2022/02/22 03:48:01;;;;;;;;;7.75;4.00;;;;;19.95;35.79;101921.88;5105885;27;45383;-53
2022/02/22 03:50:26;;;;;;;;;7.50;5.50;;;;;19.95;35.54;101906.09;5103365;27;45542;-51
2022/02/22 03:52:52;;;;;;;;;9.00;5.00;;;;;19.92;35.42;101914.97;5100274;27;45465;-53
2022/02/22 03:55:18;;;;;;;;;5.00;2.00;;;;;19.89;35.46;101916.84;5099208;27;45402;-53
2022/02/22 03:57:44;;;;;;;;;5.00;4.00;;;;;19.90;35.57;101924.66;5102979;27;45273;-55
2022/02/22 04:00:14;;;;;;;;;4.50;4.50;;;;;19.91;35.58;101922.88;5107637;27;45246;-55
2022/02/22 04:02:40;;;;;;;;;9.75;4.75;;;;;19.89;35.22;101924.75;5105043;27;45482;-53
2022/02/22 04:05:06;;;;;;;;;6.00;6.00;;;;;19.87;35.68;101913.41;5104989;27;45313;-55
2022/02/22 04:07:32;;;;;;;;;4.25;3.50;;;;;19.86;35.77;101914.31;5100558;27;45428;-53
2022/02/22 04:09:58;;;;;;;;;5.00;5.00;;;;;19.84;35.62;101916.09;5099437;27;45260;-52
2022/02/22 04:12:23;;;;;;;;;8.00;5.00;;;;;19.83;35.50;101919.63;5098926;27;45221;-52
2022/02/22 04:14:49;;;;;;;;;8.75;4.00;;;;;19.82;35.79;101912.66;5098514;27;46289;-52
2022/02/22 04:17:14;;;;;;;;;3.00;3.00;;;;;19.82;35.91;101917.91;5105147;27;45198;-51
2022/02/22 04:19:39;;;;;;;;;7.75;5.25;;;;;19.80;35.76;101915.34;5102236;27;45356;-53
2022/02/22 04:22:05;;;;;;;;;5.00;4.00;;;;;19.79;35.57;101918.91;5104986;27;45387;-54
2022/02/22 04:24:30;;;;;;;;;4.50;4.50;;;;;19.79;35.83;101926.78;5106980;27;45338;-53
2022/02/22 04:26:56;;;;;;;;;4.25;4.25;;;;;19.78;35.54;101930.31;5109610;27;45173;-52
2022/02/22 04:29:22;;;;;;;;;6.50;6.00;;;;;19.76;35.99;101934.78;5112963;27;44616;-52
2022/02/22 04:31:47;;;;;;;;;6.00;4.00;;;;;19.75;36.06;101938.31;5122697;27;44876;-54
2022/02/22 04:34:12;;;;;;;;;10.25;6.00;;;;;19.75;35.47;101941.81;5119761;27;45435;-55
2022/02/22 04:36:38;;;;;;;;;4.00;4.00;;;;;19.71;35.79;101942.84;5114694;27;45365;-51
2022/02/22 04:39:04;;;;;;;;;6.25;6.25;;;;;19.72;35.76;101941.91;5102761;27;45356;-52
2022/02/22 04:41:30;;;;;;;;;4.75;3.50;;;;;19.71;35.66;101939.34;5102670;27;45357;-52
2022/02/22 04:43:56;;;;;;;;;8.00;5.50;;;;;19.70;35.64;101935.84;5110247;27;45401;-53
2022/02/22 04:46:22;;;;;;;;;6.75;6.25;;;;;19.69;35.79;101939.38;5112713;27;44817;-54
2022/02/22 04:48:47;;;;;;;;;7.00;4.00;;;;;19.68;35.61;101942.94;5100121;27;45466;-55
2022/02/22 04:51:12;;;;;;;;;9.50;4.75;;;;;19.68;35.41;101942.94;5098633;27;45418;-53
2022/02/22 04:53:38;;;;;;;;;5.75;5.75;;;;;19.67;35.56;101940.34;5098139;27;45371;-52
2022/02/22 04:56:03;;;;;;;;;6.00;5.00;;;;;19.68;35.40;101942.94;5098562;27;45491;-54
2022/02/22 04:58:29;;;;;;;;;6.00;5.00;;;;;19.66;35.44;101943.91;5115881;27;45534;-53
2022/02/22 05:00:55;;;;;;;;;8.00;5.75;;;;;19.65;35.70;101948.31;5117499;27;45234;-55
2022/02/22 05:03:21;;;;;;;;;5.75;4.25;;;;;19.65;35.55;101948.31;5111515;27;45173;-51
2022/02/22 05:05:48;;;;;;;;;6.75;4.50;;;;;19.64;35.77;101957.13;5103795;27;45686;-51
2022/02/22 05:08:14;;;;;;;;;7.75;5.75;;;;;19.63;35.76;101966.75;5107965;27;45333;-51
2022/02/22 05:10:40;;;;;;;;;6.75;4.00;;;;;19.62;35.96;101958.94;5119600;27;46037;-54
2022/02/22 05:13:05;;;;;;;;;9.75;4.50;;;;;19.61;35.44;101965.97;5104249;27;45423;-53
2022/02/22 05:15:32;;;;;;;;;5.75;5.00;;;;;19.61;35.78;101965.09;5104307;27;45483;-55
2022/02/22 05:17:59;;;;;;;;;4.25;3.75;;;;;19.61;35.70;101962.47;5105495;27;45216;-54
2022/02/22 05:20:24;;;;;;;;;6.25;5.50;;;;;19.60;35.88;101947.59;5101446;27;45675;-53
2022/02/22 05:22:50;;;;;;;;;5.50;4.00;;;;;19.59;35.61;101959.03;5101296;27;45552;-52
2022/02/22 05:25:16;;;;;;;;;3.75;3.25;;;;;19.59;35.98;101956.38;5100815;27;45271;-51
2022/02/22 05:27:41;;;;;;;;;9.00;6.00;;;;;19.57;35.56;101950.31;5101346;27;45383;-52
2022/02/22 05:30:09;;;;;;;;;4.50;4.00;;;;;19.54;35.74;101950.44;5102388;27;45155;-54
2022/02/22 05:32:34;;;;;;;;;5.50;5.00;;;;;19.52;35.55;101947.84;5100313;27;47009;-53
2022/02/22 05:35:01;;;;;;;;;8.50;7.00;;;;;19.54;35.65;101958.34;5101323;27;45254;-51
2022/02/22 05:37:27;;;;;;;;;4.75;3.00;;;;;19.50;36.09;101947.06;5101065;27;45458;-53
2022/02/22 05:39:54;;;;;;;;;7.75;3.75;;;;;19.51;36.05;101942.66;5101464;27;45530;-54
2022/02/22 05:42:20;;;;;;;;;9.00;5.25;;;;;19.51;36.23;101946.16;5100919;27;46650;-54
2022/02/22 05:44:45;;;;;;;;;6.75;5.25;;;;;19.47;35.94;101950.63;5101278;27;45331;-54
2022/02/22 05:47:11;;;;;;;;;7.25;4.00;;;;;19.49;36.02;101961.13;5101623;27;45340;-52
2022/02/22 05:49:36;;;;;;;;;4.75;4.75;;;;;19.48;35.91;101959.41;5106284;27;45653;-51
2022/02/22 05:52:01;;;;;;;;;8.50;5.25;;;;;19.47;36.04;101963.78;5102473;27;45430;-53
2022/02/22 05:54:27;;;;;;;;;6.50;5.25;;;;;19.46;35.77;101948.91;5102676;27;45318;-53
2022/02/22 05:56:52;;;;;;;;;5.00;4.75;;;;;19.47;35.74;101950.63;5104845;27;45233;-51
2022/02/22 05:59:17;;;;;;;;;6.50;5.00;;;;;19.44;35.98;101942.88;5102214;27;45235;-54
2022/02/22 06:01:43;;;;;;;;;9.00;4.75;;;;;19.46;35.57;101943.66;5100935;27;46249;-52
2022/02/22 06:04:12;;;;;;;;;4.25;3.25;;;;;19.45;35.99;101934.06;5100569;27;45283;-53
2022/02/22 06:06:39;;;;;;;;;7.25;5.75;;;;;19.42;35.74;101931.53;5100963;27;45379;-53
2022/02/22 06:09:04;;;;;;;;;6.50;6.50;;;;;19.44;35.94;101934.97;5101749;27;45245;-53
2022/02/22 06:11:29;;;;;;;;;8.75;4.25;;;;;19.40;35.74;101925.47;5100319;27;45838;-48
2022/02/22 06:13:55;;;;;;;;;6.00;4.25;;;;;19.43;35.83;101920.13;5105075;27;45230;-54
2022/02/22 06:16:20;;;;;;;;;7.00;5.00;;;;;19.40;36.01;101922.84;5103895;27;45287;-55
2022/02/22 06:18:46;;;;;;;;;10.00;4.50;;;;;19.41;36.17;101924.56;5102407;27;45342;-53
2022/02/22 06:21:11;;;;;;;;;9.00;7.50;;;;;19.41;36.23;101934.19;5101178;27;47723;-54
2022/02/22 06:23:36;;;;;;;;;7.50;4.00;;;;;19.42;36.08;101935.91;5099619;27;45373;-55
2022/02/22 06:26:02;;;;;;;;;5.75;5.50;;;;;19.40;35.81;101943.03;5100976;27;45305;-55
2022/02/22 06:28:27;;;;;;;;;4.00;3.00;;;;;19.39;35.88;101942.16;5104159;27;45504;-54
2022/02/22 06:30:52;;;;;;;;;9.00;3.00;;;;;19.37;35.71;101936.06;5108942;27;45439;-54
2022/02/22 06:33:18;;;;;;;;;4.50;3.75;;;;;19.39;35.80;101938.66;5113615;27;45407;-53
2022/02/22 06:35:43;;;;;;;;;4.75;4.00;;;;;19.38;35.92;101939.56;5116482;27;45279;-54
2022/02/22 06:38:08;;;;;;;;;6.50;5.75;;;;;19.37;35.78;101938.69;5112504;27;45396;-55
2022/02/22 06:40:36;;;;;;;;;4.00;4.00;;;;;19.36;36.23;101936.97;5101144;27;45406;-54
2022/02/22 06:43:02;;;;;;;;;9.25;4.25;;;;;19.34;36.07;101938.81;5101636;27;45826;-54
2022/02/22 06:45:28;;;;;;;;;4.75;4.50;;;;;19.35;35.73;101935.25;5100734;27;45451;-54
2022/02/22 08:38:51;;;;;;;;;6.75;3.50;;;;;19.10;36.23;101938.69;5112819;27;45790;-53
2022/02/22 08:41:17;;;;;;;;;7.00;4.25;;;;;19.14;36.33;101944.72;5113383;27;45298;-54
2022/02/22 08:43:42;;;;;;;;;5.25;4.00;;;;;19.12;36.30;101944.78;5120227;27;45143;-52
2022/02/22 08:46:08;;;;;;;;;9.25;4.25;;;;;19.12;36.17;101934.25;5120915;27;45208;-52
2022/02/22 08:48:33;;;;;;;;;4.25;4.25;;;;;19.13;36.27;101933.31;5115333;27;46350;-53
2022/02/22 08:50:58;;;;;;;;;8.25;5.75;;;;;19.12;36.24;101929.00;5105671;27;59879;-48
2022/02/22 08:53:24;;;;;;;;;2.50;2.00;;;;;19.12;36.15;101915.88;5112347;27;45274;-55
2022/02/22 08:55:49;;;;;;;;;2.00;2.00;;;;;19.11;36.07;101911.53;5108908;27;45342;-53
2022/02/22 08:58:15;;;;;;;;;5.00;3.00;;;;;19.13;36.53;101909.69;5112090;27;46191;-53
2022/02/22 09:00:41;;;;;;;;;5.50;4.50;;;;;19.14;36.36;101913.19;5111318;27;45333;-52
2022/02/22 09:03:07;;;;;;;;;3.75;3.75;;;;;19.13;36.25;101920.19;5107937;27;45388;-49
2022/02/22 09:05:33;;;;;;;;;6.75;3.75;;;;;19.11;36.43;101914.16;5105549;27;45423;-52
2022/02/22 09:07:59;;;;;;;;;7.50;4.00;;;;;19.13;36.22;101917.56;5105879;27;45316;-53
2022/02/22 09:10:25;;;;;;;;;4.00;3.00;;;;;19.12;36.43;101915.88;5102854;27;45256;-56
2022/02/22 09:12:51;;;;;;;;;4.25;3.25;;;;;19.12;36.27;101910.59;5119174;27;45203;-60
2022/02/22 09:15:19;;;;;;;;;8.00;5.00;;;;;19.12;36.54;101905.34;5105332;27;45545;-53
2022/02/22 09:17:45;;;;;;;;;7.00;6.00;;;;;19.10;36.37;101896.66;5106376;27;47005;-54
2022/02/22 09:20:13;;;;;;;;;6.50;3.25;;;;;19.12;36.11;101901.84;5114655;27;45405;-54
2022/02/22 09:22:39;;;;;;;;;6.00;4.25;;;;;19.12;36.49;101892.22;5106370;27;45201;-53
2022/02/22 09:25:06;;;;;;;;;4.75;3.00;;;;;19.11;36.38;101894.88;5104818;27;45642;-55
2022/02/22 09:27:32;;;;;;;;;9.00;5.00;;;;;19.10;36.52;101893.16;5102428;27;45165;-51
2022/02/22 09:29:58;;;;;;;;;4.25;3.00;;;;;19.11;36.55;101901.00;5102673;27;45431;-54
2022/02/22 09:32:24;;;;;;;;;4.75;3.00;;;;;19.09;36.32;101888.81;5101484;27;45500;-55
2022/02/22 09:34:50;;;;;;;;;6.25;2.75;;;;;19.10;36.21;101904.53;5101656;27;45552;-53
2022/02/22 09:37:16;;;;;;;;;3.75;3.75;;;;;19.08;36.50;101895.84;5102825;27;47060;-54
2022/02/22 09:39:42;;;;;;;;;4.00;4.00;;;;;19.11;36.25;101892.25;5101387;27;45524;-53
2022/02/22 09:42:08;;;;;;;;;8.75;4.00;;;;;19.09;36.45;101884.44;5101745;27;45412;-53
2022/02/22 09:44:35;;;;;;;;;3.00;3.00;;;;;19.11;36.25;101890.50;5101822;27;45257;-56
2022/02/22 09:47:02;;;;;;;;;5.50;4.00;;;;;19.11;36.25;101887.88;5101327;27;46457;-54
2022/02/22 09:49:27;;;;;;;;;5.50;5.00;;;;;19.09;36.56;101886.19;5102335;27;45903;-54
2022/02/22 09:51:55;;;;;;;;;8.25;4.00;;;;;19.11;36.40;101882.63;5101939;27;45233;-52
2022/02/22 09:54:22;;;;;;;;;6.50;4.00;;;;;19.10;36.57;101878.25;5103672;27;45540;-54
2022/02/22 09:56:48;;;;;;;;;6.25;2.50;;;;;19.11;36.54;101858.97;5107063;27;46429;-54
2022/02/22 09:59:15;;;;;;;;;9.75;4.25;;;;;19.11;36.41;101853.72;5107929;27;45226;-55
2022/02/22 10:01:42;;;;;;;;;5.00;5.00;;;;;19.11;36.24;101843.19;5107159;27;45165;-57
2022/02/22 10:04:07;;;;;;;;;5.50;5.25;;;;;19.12;36.33;101847.53;5101772;27;45287;-55
2022/02/22 10:06:33;;;;;;;;;4.00;2.75;;;;;19.10;36.29;101841.47;5105901;27;46289;-52
2022/02/22 10:08:58;;;;;;;;;4.50;4.25;;;;;19.12;36.43;101834.41;5104238;27;45312;-54
2022/02/22 10:11:24;;;;;;;;;4.75;4.00;;;;;19.12;36.61;101821.25;5102855;27;45327;-55
2022/02/22 10:13:49;;;;;;;;;6.50;4.50;;;;;19.12;36.28;101834.41;5102576;27;45687;-53
2022/02/22 10:16:16;;;;;;;;;6.25;4.50;;;;;19.13;36.56;101830.00;5104201;27;45399;-53
2022/02/22 10:18:53;;;;;;;;;5.25;4.75;;;;;19.13;36.58;101825.59;5106713;27;45964;-54
2022/02/22 10:21:20;;;;;;;;;5.00;3.00;;;;;19.13;36.36;101827.38;5106224;27;45227;-53
2022/02/22 10:23:46;;;;;;;;;5.00;3.25;;;;;19.13;36.54;101843.97;5106289;27;45219;-53
2022/02/22 10:26:23;;;;;;;;;4.00;2.00;;;;;19.15;36.49;101847.41;5105527;27;46238;-55
2022/02/22 10:28:48;;;;;;;;;6.00;4.00;;;;;19.14;36.36;101840.44;5102561;27;45489;-54
2022/02/22 10:31:14;;;;;;;;;4.00;3.00;;;;;19.14;36.48;101848.31;5099581;27;45432;-53
2022/02/22 10:33:44;;;;;;;;;4.75;4.75;;;;;19.13;36.77;101865.00;5100542;27;45522;-55
2022/02/22 10:36:18;;;;;;;;;3.75;3.25;;;;;19.14;36.70;101866.72;5100353;27;45329;-56
2022/02/22 10:38:43;;;;;;;;;6.00;4.00;;;;;19.15;36.66;101881.59;5100428;27;45333;-55
2022/02/22 10:41:15;;;;;;;;;6.50;2.00;;;;;19.15;36.75;101880.75;5100244;27;45283;-57
2022/02/22 10:43:42;;;;;;;;;7.75;5.75;;;;;19.14;36.81;101885.13;5100402;27;45429;-53
2022/02/22 10:46:10;;;;;;;;;5.25;4.25;;;;;19.14;36.69;101890.38;5099738;27;46471;-55
2022/02/22 10:48:39;;;;;;;;;3.00;3.00;;;;;19.15;36.36;101886.00;5099845;27;45922;-56
2022/02/22 10:51:06;;;;;;;;;3.00;3.00;;;;;19.14;36.76;101882.50;5106510;27;45380;-54
2022/02/22 10:53:40;;;;;;;;;3.25;1.00;;;;;19.14;36.57;101876.38;5119365;27;45399;-56
2022/02/22 10:56:09;;;;;;;;;5.75;2.50;;;;;19.13;36.57;101870.25;5120621;27;45289;-55
2022/02/22 10:58:35;;;;;;;;;3.75;3.00;;;;;19.11;36.82;101866.84;5115798;27;45372;-55
2022/02/22 11:01:02;;;;;;;;;5.00;3.50;;;;;19.13;36.97;101878.13;5105736;27;45243;-53
2022/02/22 11:03:29;;;;;;;;;3.00;3.00;;;;;19.13;36.68;101866.78;5104965;27;44757;-54
2022/02/22 11:05:54;;;;;;;;;3.00;3.00;;;;;19.12;36.78;101865.94;5106202;27;46163;-50
2022/02/22 11:08:24;;;;;;;;;4.00;4.00;;;;;19.13;37.01;101882.56;5101763;27;45494;-53
2022/02/22 11:11:02;;;;;;;;;4.75;2.50;;;;;19.11;36.77;101873.84;5104536;27;45257;-52
2022/02/22 11:13:30;;;;;;;;;2.25;2.00;;;;;19.13;36.67;101877.28;5104000;27;45493;-53
2022/02/22 11:16:06;;;;;;;;;5.50;3.00;;;;;19.12;37.12;101876.44;5104798;27;47745;-52
2022/02/22 11:18:41;;;;;;;;;4.75;3.75;;;;;19.12;36.64;101851.94;5103380;27;45334;-51
2022/02/22 11:21:08;;;;;;;;;4.25;3.00;;;;;19.12;36.85;101836.16;5102764;27;45325;-51
2022/02/22 11:23:33;;;;;;;;;5.00;3.00;;;;;19.12;36.76;101844.03;5103380;27;45226;-54
2022/02/22 11:26:06;;;;;;;;;3.75;3.50;;;;;19.11;36.86;101845.81;5098513;27;46863;-53
2022/02/22 11:28:37;;;;;;;;;4.00;4.00;;;;;19.09;37.09;101852.88;5099319;27;45975;-55
2022/02/22 11:31:11;;;;;;;;;3.75;3.00;;;;;19.08;37.16;101856.44;5099705;27;45760;-53
2022/02/22 11:33:39;;;;;;;;;3.75;2.00;;;;;19.11;37.00;101868.59;5098308;27;45214;-51
2022/02/22 11:36:08;;;;;;;;;5.25;2.25;;;;;19.11;37.26;101852.84;5099373;27;46055;-54
2022/02/22 11:38:59;;;;;;;;;3.00;3.00;;;;;19.13;37.09;101858.91;5100275;27;45977;-54
2022/02/22 11:41:27;;;;;;;;;3.25;2.00;;;;;19.13;37.11;101862.38;5100046;27;45507;-52
2022/02/22 11:43:59;;;;;;;;;3.25;1.50;;;;;19.13;37.25;101878.13;5100038;27;45558;-50
2022/02/22 11:46:45;;;;;;;;;3.00;2.00;;;;;19.13;37.00;101862.38;5099793;27;46477;-51
2022/02/22 11:49:23;;;;;;;;;2.50;2.50;;;;;19.13;37.18;101856.28;5106069;27;45337;-52
2022/02/22 11:51:53;;;;;;;;;4.00;3.00;;;;;19.15;37.28;101862.34;5120323;27;45340;-54
2022/02/22 11:54:23;;;;;;;;;3.50;2.00;;;;;19.14;36.96;101858.00;5104967;27;45506;-54
2022/02/22 11:57:06;;;;;;;;;3.75;2.25;;;;;19.12;37.13;101865.06;5108673;27;47998;-56
2022/02/22 11:59:54;;;;;;;;;3.00;2.75;;;;;19.14;37.11;101848.31;5106040;27;45170;-53
2022/02/22 12:02:31;;;;;;;;;3.00;3.00;;;;;19.15;37.13;101839.53;5107052;27;45230;-52
2022/02/22 12:04:57;;;;;;;;;3.75;3.00;;;;;19.15;37.28;101836.91;5104189;27;45477;-52
2022/02/22 12:07:31;;;;;;;;;1.00;0.00;;;;;19.16;37.16;101837.78;5114068;27;46688;-53
2022/02/22 12:09:58;;;;;;;;;2.50;2.50;;;;;19.16;36.96;101833.38;5113762;27;45203;-53
2022/02/22 12:12:25;;;;;;;;;2.00;2.00;;;;;19.13;37.03;101828.22;5114773;27;45423;-54
2022/02/22 12:14:56;;;;;;;;;4.50;2.00;;;;;19.15;37.41;101823.78;5115741;27;45561;-53
2022/02/22 12:17:22;;;;;;;;;4.00;2.75;;;;;19.17;37.19;101821.09;5117194;27;46183;-55
2022/02/22 12:19:49;;;;;;;;;2.00;2.00;;;;;19.16;37.40;101801.00;5117443;27;45211;-55
2022/02/22 12:22:15;;;;;;;;;2.75;1.00;;;;;19.15;37.31;101781.72;5110564;27;45366;-55
2022/02/22 12:24:42;;;;;;;;;3.50;2.00;;;;;19.15;37.27;101776.47;5115864;27;45247;-56
2022/02/22 12:27:13;;;;;;;;;2.00;2.00;;;;;19.18;37.01;101800.94;5109848;27;45059;-52
2022/02/22 12:29:38;;;;;;;;;5.00;1.00;;;;;19.18;37.46;101804.44;5101297;27;45755;-54
2022/02/22 12:32:04;;;;;;;;;2.75;2.25;;;;;19.19;37.19;101813.16;5100212;27;45340;-52
2022/02/22 12:34:30;;;;;;;;;2.25;2.00;;;;;19.20;37.05;101799.13;5098677;27;45253;-54
2022/02/22 12:36:58;;;;;;;;;4.00;3.00;;;;;19.18;37.39;101801.81;5097933;27;46990;-56
2022/02/22 12:39:27;;;;;;;;;3.00;2.00;;;;;19.19;37.18;101802.66;5098020;27;45702;-55
2022/02/22 12:41:55;;;;;;;;;6.00;2.75;;;;;19.20;37.49;101809.63;5099669;27;45333;-53
2022/02/22 12:44:22;;;;;;;;;2.75;2.00;;;;;19.20;37.51;101805.22;5099644;27;45483;-56
2022/02/22 12:46:50;;;;;;;;;3.75;2.75;;;;;19.19;37.46;101805.28;5097181;27;46145;-56
2022/02/22 12:49:20;;;;;;;;;0.50;0.50;;;;;19.18;37.30;101791.28;5098092;27;45821;-55
2022/02/22 12:51:49;;;;;;;;;2.50;2.00;;;;;19.22;37.35;101799.94;5098342;27;45425;-54
2022/02/22 12:54:19;;;;;;;;;2.25;2.25;;;;;19.20;37.41;101802.59;5097816;27;45569;-52
2022/02/22 12:56:53;;;;;;;;;2.00;2.00;;;;;19.20;37.08;101807.00;5100238;27;46102;-53
2022/02/22 12:59:27;;;;;;;;;1.75;1.75;;;;;19.19;37.31;101803.50;5100362;27;45405;-55
2022/02/22 13:01:54;;;;;;;;;4.00;3.50;;;;;19.20;37.75;101801.75;5100678;27;45351;-52
2022/02/22 13:04:27;;;;;;;;;3.75;2.50;;;;;19.18;37.40;101814.94;5099099;27;45319;-56
2022/02/22 13:06:59;;;;;;;;;1.00;1.00;;;;;19.20;37.83;101809.63;5100207;27;46106;-52
2022/02/22 13:09:25;;;;;;;;;1.00;1.00;;;;;19.20;37.76;101809.63;5098217;27;45865;-53
2022/02/22 13:11:56;;;;;;;;;3.75;3.00;;;;;19.19;37.89;101803.50;5098520;27;45353;-54
2022/02/22 13:14:21;;;;;;;;;3.00;2.00;;;;;19.16;37.50;101796.56;5098327;27;45275;-56